Time;durP1;ratioP1;P1;durP2;ratioP2;P2;SDS_P1;SDS_P2;PMS_P1;PMS_P2;Temp;Humidity;BMP_temperature;BMP_pressure;BME280_temperature;BME280_humidity;BME280_pressure;Samples;Min_cycle;Max_cycle;Signal;HPM_P1;HPM_P2
2022/11/08 00:03:49;;;;;;;34.80;21.80;;;4.90;76.50;;;;;;5076136;28;19923;-18
2022/11/08 00:14:28;;;;;;;27.95;19.08;;;4.90;76.00;;;;;;5075408;28;20511;-19
2022/11/08 00:16:54;;;;;;;35.13;21.17;;;4.90;76.10;;;;;;5075526;28;20024;-18
2022/11/08 00:19:20;;;;;;;35.65;22.88;;;4.90;76.10;;;;;;5075236;28;20046;-19
2022/11/08 00:21:46;;;;;;;28.48;19.73;;;4.90;76.30;;;;;;5075206;28;20029;-17
2022/11/08 00:24:12;;;;;;;49.97;30.50;;;4.80;76.20;;;;;;5075833;28;20031;-17
2022/11/08 00:26:38;;;;;;;38.63;24.23;;;4.80;76.70;;;;;;5075216;28;20017;-18
2022/11/08 00:29:04;;;;;;;48.80;30.40;;;4.70;76.30;;;;;;5074882;28;20033;-18
2022/11/08 00:31:30;;;;;;;40.08;27.02;;;4.70;76.40;;;;;;5073831;28;20032;-18
2022/11/08 00:33:56;;;;;;;31.50;20.85;;;4.70;76.80;;;;;;5074731;28;20051;-17
2022/11/08 00:36:22;;;;;;;36.13;23.25;;;4.60;76.70;;;;;;5075170;28;20523;-17
2022/11/08 00:38:48;;;;;;;32.75;21.40;;;4.60;76.90;;;;;;5075020;28;20415;-18
2022/11/08 00:41:14;;;;;;;34.95;21.90;;;4.60;76.80;;;;;;5073675;28;20401;-17
2022/11/08 00:43:40;;;;;;;30.33;20.05;;;4.60;76.70;;;;;;5073687;28;20114;-18
2022/11/08 00:46:06;;;;;;;45.03;27.73;;;4.50;76.90;;;;;;5075116;28;20020;-17
2022/11/08 00:48:32;;;;;;;44.40;29.13;;;4.60;77.50;;;;;;5074759;28;20115;-16
2022/11/08 00:51:07;;;;;;;41.75;26.77;;;4.50;77.10;;;;;;5074579;28;20059;-18
2022/11/08 00:53:37;;;;;;;46.40;28.33;;;4.50;77.10;;;;;;5074900;28;20032;-20
2022/11/08 00:56:06;;;;;;;43.08;27.58;;;4.40;77.40;;;;;;5074515;28;20078;-16
2022/11/08 00:58:32;;;;;;;38.45;23.92;;;4.40;77.20;;;;;;5075145;28;20115;-18
2022/11/08 01:00:59;;;;;;;38.30;25.30;;;4.40;77.30;;;;;;5074596;28;20103;-17
2022/11/08 01:03:26;;;;;;;43.40;28.40;;;4.40;77.40;;;;;;5074768;28;20032;-17
2022/11/08 01:05:53;;;;;;;44.10;27.30;;;4.40;77.50;;;;;;5074320;28;20024;-17
2022/11/08 01:08:23;;;;;;;46.22;28.30;;;4.40;77.30;;;;;;5074504;28;20025;-17
2022/11/08 01:10:50;;;;;;;47.55;28.75;;;4.40;77.40;;;;;;5073800;28;20060;-19
2022/11/08 01:13:18;;;;;;;43.63;29.70;;;4.40;77.30;;;;;;5074602;28;20028;-18
2022/11/08 01:15:45;;;;;;;36.47;23.48;;;4.40;77.40;;;;;;5074421;28;20104;-19
2022/11/08 01:18:13;;;;;;;48.50;29.40;;;4.40;78.10;;;;;;5074461;28;20499;-18
2022/11/08 01:20:41;;;;;;;39.75;26.40;;;4.40;77.90;;;;;;5074349;28;20016;-18
2022/11/08 01:23:08;;;;;;;43.03;24.27;;;4.40;78.00;;;;;;5073932;28;20025;-18
2022/11/08 01:25:42;;;;;;;34.15;21.98;;;4.40;77.70;;;;;;5074435;28;20060;-18
2022/11/08 01:28:09;;;;;;;43.38;26.17;;;4.40;77.60;;;;;;5074196;28;20477;-18
2022/11/08 01:30:41;;;;;;;49.55;29.20;;;4.40;78.10;;;;;;5073863;28;20385;-16
2022/11/08 01:33:07;;;;;;;46.42;28.65;;;4.30;78.00;;;;;;5073428;28;20048;-18
2022/11/08 01:35:35;;;;;;;35.92;24.17;;;4.30;78.30;;;;;;5073679;28;20485;-17
2022/11/08 01:38:02;;;;;;;46.22;27.23;;;4.30;78.60;;;;;;5073947;28;20090;-18
2022/11/08 01:40:29;;;;;;;47.90;29.40;;;4.20;78.70;;;;;;5074120;28;20024;-18
2022/11/08 01:42:56;;;;;;;50.67;30.98;;;4.20;78.80;;;;;;5073473;28;20028;-18
2022/11/08 01:45:59;;;;;;;32.33;21.77;;;4.20;78.70;;;;;;5074221;28;20028;-17
2022/11/08 01:48:27;;;;;;;42.30;26.00;;;4.20;78.50;;;;;;5073549;28;20504;-18
2022/11/08 01:50:56;;;;;;;37.38;23.92;;;4.20;78.50;;;;;;5073625;28;20036;-17
2022/11/08 01:53:23;;;;;;;42.40;26.80;;;4.10;78.80;;;;;;5073866;28;20029;-18
2022/11/08 01:55:51;;;;;;;44.72;28.35;;;4.10;78.40;;;;;;5073619;28;20426;-18
2022/11/08 01:58:22;;;;;;;32.75;22.27;;;4.10;78.60;;;;;;5073433;28;20036;-18
2022/11/08 02:00:48;;;;;;;51.70;29.50;;;4.10;78.70;;;;;;5073682;28;20047;-18
2022/11/08 02:03:17;;;;;;;35.90;23.30;;;4.10;78.40;;;;;;5073374;28;20071;-18
2022/11/08 02:05:44;;;;;;;34.45;23.70;;;4.10;79.10;;;;;;5073651;28;20020;-18
2022/11/08 02:08:18;;;;;;;42.22;26.40;;;4.10;79.00;;;;;;5073152;28;20028;-18
2022/11/08 02:10:48;;;;;;;45.63;28.63;;;4.10;79.40;;;;;;5073353;28;20032;-18
2022/11/08 02:13:19;;;;;;;46.88;29.52;;;4.10;79.40;;;;;;5074170;28;20035;-18
2022/11/08 02:15:45;;;;;;;36.58;23.60;;;4.10;79.10;;;;;;5073250;28;20510;-18
2022/11/08 02:18:13;;;;;;;30.17;20.73;;;4.10;78.70;;;;;;5073555;28;20024;-16
2022/11/08 02:21:05;;;;;;;34.90;23.75;;;4.10;78.90;;;;;;5073684;28;20020;-17
2022/11/08 02:24:10;;;;;;;46.60;28.40;;;4.10;78.80;;;;;;5073011;28;20025;-15
2022/11/08 02:26:37;;;;;;;43.25;26.73;;;4.10;78.90;;;;;;5073118;28;20035;-17
2022/11/08 02:29:23;;;;;;;37.40;24.58;;;4.00;79.30;;;;;;5072857;28;20136;-16
2022/11/08 02:31:49;;;;;;;27.65;19.52;;;4.00;79.30;;;;;;5073669;28;20052;-17
2022/11/08 02:34:16;;;;;;;30.90;18.88;;;3.90;78.90;;;;;;5072806;28;20452;-19
2022/11/08 02:36:45;;;;;;;35.45;21.27;;;4.00;79.00;;;;;;5073032;28;20063;-17
2022/11/08 02:39:11;;;;;;;32.72;21.77;;;4.00;79.00;;;;;;5073374;28;20376;-18
2022/11/08 02:41:37;;;;;;;24.38;16.23;;;3.90;79.10;;;;;;5073268;28;20029;-17
2022/11/08 02:44:03;;;;;;;23.25;15.73;;;3.90;78.80;;;;;;5073151;28;20161;-19
2022/11/08 02:46:29;;;;;;;27.05;18.33;;;4.00;78.50;;;;;;5073367;28;20063;-17
2022/11/08 02:48:54;;;;;;;30.08;19.80;;;3.90;78.20;;;;;;5072838;28;20527;-16
2022/11/08 02:51:20;;;;;;;27.48;20.58;;;3.90;78.40;;;;;;5072779;28;20354;-18
2022/11/08 02:53:46;;;;;;;31.70;19.63;;;3.90;78.70;;;;;;5073371;28;20028;-17
2022/11/08 02:56:12;;;;;;;34.15;21.92;;;3.90;78.80;;;;;;5072720;28;20131;-18
2022/11/08 02:58:38;;;;;;;35.72;23.42;;;3.90;79.00;;;;;;5073070;28;20029;-18
2022/11/08 03:01:04;;;;;;;41.58;24.23;;;3.90;79.00;;;;;;5073213;28;20033;-17
2022/11/08 03:03:31;;;;;;;36.53;21.85;;;3.90;78.70;;;;;;5072734;28;20151;-18
2022/11/08 03:05:56;;;;;;;26.38;16.92;;;3.90;78.70;;;;;;5072634;28;20111;-18
2022/11/08 03:08:22;;;;;;;46.47;26.88;;;3.80;78.40;;;;;;5072692;28;20057;-17
2022/11/08 03:10:48;;;;;;;42.65;26.10;;;3.90;78.60;;;;;;5072875;28;20081;-18
2022/11/08 03:13:14;;;;;;;47.17;28.02;;;3.80;79.10;;;;;;5072563;28;20434;-17
2022/11/08 03:15:40;;;;;;;45.92;30.02;;;3.80;78.90;;;;;;5072456;28;20036;-18
2022/11/08 03:18:06;;;;;;;42.92;27.98;;;3.80;79.10;;;;;;5072654;28;20023;-18
2022/11/08 03:20:33;;;;;;;29.60;19.35;;;3.80;79.50;;;;;;5072588;28;20070;-17
2022/11/08 03:23:05;;;;;;;29.20;20.50;;;3.80;79.20;;;;;;5072225;28;20574;-17
2022/11/08 03:25:32;;;;;;;28.65;18.77;;;3.80;79.30;;;;;;5072867;28;20051;-15
2022/11/08 03:28:07;;;;;;;34.92;20.92;;;3.70;78.90;;;;;;5072944;28;20024;-16
2022/11/08 03:30:34;;;;;;;33.15;21.30;;;3.70;78.50;;;;;;5072466;28;20024;-18
2022/11/08 03:33:00;;;;;;;37.58;24.02;;;3.60;78.90;;;;;;5073234;28;20433;-16
2022/11/08 03:35:26;;;;;;;37.08;22.60;;;3.60;78.70;;;;;;5076118;28;20029;-16
2022/11/08 03:37:54;;;;;;;38.08;25.23;;;3.60;78.60;;;;;;5075971;28;20504;-17
2022/11/08 03:40:22;;;;;;;45.17;27.27;;;3.60;78.60;;;;;;5076290;28;20064;-15
2022/11/08 03:42:49;;;;;;;46.05;26.52;;;3.60;79.00;;;;;;5075796;28;20029;-17
2022/11/08 03:45:15;;;;;;;30.77;21.02;;;3.70;78.80;;;;;;5075964;28;20036;-19
2022/11/08 03:47:46;;;;;;;40.83;25.02;;;3.70;78.90;;;;;;5076578;28;20090;-16
2022/11/08 03:50:13;;;;;;;43.85;28.50;;;3.70;78.80;;;;;;5075899;28;20063;-18
2022/11/08 03:52:48;;;;;;;42.10;24.10;;;3.70;78.80;;;;;;5075733;28;20032;-17
2022/11/08 03:55:15;;;;;;;35.15;21.10;;;3.70;78.90;;;;;;5076092;28;20035;-16
2022/11/08 03:57:45;;;;;;;30.60;19.88;;;3.80;79.10;;;;;;5076524;28;20029;-18
2022/11/08 04:00:13;;;;;;;32.03;20.20;;;3.80;79.10;;;;;;5076148;28;20051;-18
2022/11/08 04:02:39;;;;;;;28.48;18.00;;;3.80;78.90;;;;;;5075757;28;20029;-14
2022/11/08 04:05:07;;;;;;;33.70;21.17;;;3.70;78.90;;;;;;5075462;28;20141;-13
2022/11/08 04:07:33;;;;;;;22.98;15.40;;;3.70;79.00;;;;;;5075731;28;20060;-13
2022/11/08 04:09:59;;;;;;;27.95;17.23;;;3.70;78.70;;;;;;5075810;28;20055;-16
2022/11/08 04:15:16;;;;;;;29.58;19.33;;;3.70;78.50;;;;;;5075228;28;20082;-16
2022/11/08 04:23:15;;;;;;;25.40;16.77;;;3.60;78.90;;;;;;5075532;28;20511;-18
2022/11/08 04:25:42;;;;;;;24.30;16.30;;;3.60;79.00;;;;;;5075676;28;20045;-18
2022/11/08 04:28:08;;;;;;;32.13;20.67;;;3.60;78.80;;;;;;5075112;28;20032;-18
2022/11/08 04:30:34;;;;;;;26.17;17.80;;;3.60;79.20;;;;;;5075232;28;20025;-17
2022/11/08 04:33:02;;;;;;;25.13;15.50;;;3.50;79.00;;;;;;5074675;28;20148;-17
2022/11/08 04:35:30;;;;;;;23.80;16.92;;;3.50;79.00;;;;;;5075292;28;20389;-16
2022/11/08 04:38:02;;;;;;;33.53;19.83;;;3.50;78.80;;;;;;5075136;28;20112;-18
2022/11/08 04:40:30;;;;;;;29.40;18.50;;;3.40;79.00;;;;;;5075180;28;20488;-19
2022/11/08 04:42:56;;;;;;;31.00;20.10;;;3.40;79.10;;;;;;5074984;28;20111;-18
2022/11/08 04:45:22;;;;;;;30.05;19.05;;;3.30;79.30;;;;;;5074416;28;20051;-18
2022/11/08 04:47:48;;;;;;;33.83;19.05;;;3.40;78.90;;;;;;5074829;28;20112;-18
2022/11/08 04:50:15;;;;;;;25.52;16.80;;;3.30;78.80;;;;;;5074757;28;20025;-17
2022/11/08 04:52:41;;;;;;;35.47;19.52;;;3.30;79.00;;;;;;5074682;28;20034;-17
2022/11/08 04:55:08;;;;;;;20.00;13.30;;;3.30;79.20;;;;;;5073196;28;20025;-18
2022/11/08 04:57:34;;;;;;;25.75;16.77;;;3.20;79.10;;;;;;5074903;28;20056;-19
2022/11/08 05:00:00;;;;;;;26.75;17.83;;;3.20;79.20;;;;;;5074797;28;20033;-17
2022/11/08 05:02:26;;;;;;;33.88;21.80;;;3.20;79.40;;;;;;5073278;28;20392;-16
2022/11/08 05:04:52;;;;;;;31.40;20.38;;;3.20;79.40;;;;;;5074547;28;20488;-18
2022/11/08 05:07:19;;;;;;;33.20;20.45;;;3.10;79.50;;;;;;5074698;28;20490;-17
2022/11/08 05:09:45;;;;;;;39.17;25.42;;;3.10;79.50;;;;;;5074622;28;20024;-18
2022/11/08 05:12:11;;;;;;;30.70;20.50;;;3.10;79.60;;;;;;5074326;28;20431;-18
2022/11/08 05:14:37;;;;;;;34.00;20.08;;;3.10;79.60;;;;;;5072945;28;20481;-17
2022/11/08 05:17:03;;;;;;;36.92;23.90;;;3.10;79.60;;;;;;5074140;28;20393;-17
2022/11/08 05:24:58;;;;;;;29.58;18.42;;;3.00;79.60;;;;;;5074200;28;20046;-18
2022/11/08 05:27:24;;;;;;;23.95;16.02;;;3.00;79.90;;;;;;5074334;28;20106;-16
2022/11/08 05:29:50;;;;;;;31.73;20.02;;;3.00;79.70;;;;;;5074534;28;20075;-18
2022/11/08 05:32:16;;;;;;;37.30;22.77;;;3.00;79.60;;;;;;5074528;28;20040;-16
2022/11/08 05:34:42;;;;;;;30.90;19.33;;;3.00;80.50;;;;;;5073627;28;20043;-17
2022/11/08 05:37:08;;;;;;;31.33;21.33;;;2.90;80.60;;;;;;5073538;28;20021;-17
2022/11/08 05:39:34;;;;;;;25.95;17.95;;;2.80;80.70;;;;;;5073809;28;20468;-19
2022/11/08 05:42:00;;;;;;;29.67;19.52;;;2.70;80.20;;;;;;5073769;28;20032;-18
2022/11/08 05:44:26;;;;;;;31.45;18.90;;;2.70;80.20;;;;;;5073972;28;20074;-15
2022/11/08 05:46:52;;;;;;;32.75;21.42;;;2.70;80.50;;;;;;5073471;28;20064;-16
2022/11/08 05:49:18;;;;;;;31.52;19.30;;;2.70;80.70;;;;;;5073919;28;20027;-17
2022/11/08 05:51:44;;;;;;;29.83;18.00;;;2.60;81.20;;;;;;5073419;28;20109;-17
2022/11/08 05:54:11;;;;;;;28.15;17.13;;;2.60;79.90;;;;;;5073526;28;20105;-17
2022/11/08 05:56:38;;;;;;;36.72;22.60;;;2.70;79.80;;;;;;5072934;28;20519;-16
2022/11/08 05:59:04;;;;;;;39.88;22.50;;;2.70;79.90;;;;;;5073323;28;20108;-17
2022/11/08 06:01:31;;;;;;;35.03;23.15;;;2.80;79.80;;;;;;5073737;28;20032;-17
2022/11/08 06:03:57;;;;;;;37.53;21.58;;;2.90;81.50;;;;;;5073337;28;20070;-17
2022/11/08 06:06:23;;;;;;;33.85;20.55;;;3.00;81.50;;;;;;5072024;28;20028;-17
2022/11/08 06:08:50;;;;;;;34.72;21.00;;;3.10;80.90;;;;;;5073094;28;20492;-16
2022/11/08 06:11:20;;;;;;;32.28;19.40;;;3.20;80.70;;;;;;5073620;28;20033;-18
2022/11/08 06:13:46;;;;;;;34.70;19.27;;;3.40;80.40;;;;;;5073579;28;20021;-19
2022/11/08 06:16:14;;;;;;;31.05;19.38;;;3.50;80.80;;;;;;5073505;28;20032;-18
2022/11/08 06:18:41;;;;;;;30.23;18.92;;;3.60;80.40;;;;;;5073484;28;20025;-16
2022/11/08 06:21:13;;;;;;;30.70;19.70;;;3.70;80.50;;;;;;5071784;28;20075;-16
2022/11/08 06:23:40;;;;;;;33.22;19.45;;;3.80;80.30;;;;;;5073489;28;20039;-18
2022/11/08 06:26:08;;;;;;;29.25;18.50;;;3.90;80.10;;;;;;5073442;28;20025;-18
2022/11/08 06:28:35;;;;;;;32.08;19.92;;;3.90;80.30;;;;;;5073084;28;20039;-18
2022/11/08 06:31:02;;;;;;;27.83;16.13;;;4.00;80.30;;;;;;5073215;28;20029;-17
2022/11/08 06:33:29;;;;;;;23.80;14.95;;;4.10;80.60;;;;;;5072868;28;20059;-18
2022/11/08 06:35:55;;;;;;;23.77;13.88;;;4.20;80.50;;;;;;5071715;28;20024;-19
2022/11/08 06:38:21;;;;;;;25.02;14.60;;;4.30;80.60;;;;;;5071710;28;20063;-16
2022/11/08 06:40:47;;;;;;;22.65;14.60;;;4.40;80.70;;;;;;5072889;28;20025;-18
2022/11/08 06:43:14;;;;;;;29.23;13.90;;;4.60;80.80;;;;;;5073300;28;20059;-16
2022/11/08 06:45:40;;;;;;;30.35;17.65;;;4.70;80.90;;;;;;5073082;28;20017;-15
2022/11/08 06:48:07;;;;;;;18.70;13.13;;;4.90;81.30;;;;;;5073160;28;20383;-15
2022/11/08 06:50:34;;;;;;;19.00;12.65;;;5.10;81.10;;;;;;5072881;28;20031;-16
2022/11/08 06:53:03;;;;;;;20.70;12.85;;;5.40;81.20;;;;;;5072745;28;20029;-18
2022/11/08 06:55:30;;;;;;;24.20;14.70;;;5.60;80.60;;;;;;5072713;28;20097;-19
2022/11/08 06:57:56;;;;;;;23.80;16.63;;;5.90;80.50;;;;;;5072826;28;20032;-14
2022/11/08 07:00:22;;;;;;;38.83;22.45;;;6.10;80.40;;;;;;5073087;28;20154;-17
2022/11/08 07:02:56;;;;;;;26.88;16.33;;;6.30;79.90;;;;;;5072509;28;20404;-18
2022/11/08 07:05:22;;;;;;;;;;;6.40;79.30;;;;;;5073496;28;20027;-15
2022/11/08 07:07:50;;;;;;;53.45;34.17;;;6.50;79.20;;;;;;5072868;28;19912;-16
2022/11/08 07:10:18;;;;;;;33.58;24.42;;;6.60;79.10;;;;;;5076962;28;20077;-14
2022/11/08 07:12:45;;;;;;;26.60;17.88;;;6.60;79.10;;;;;;5076571;28;20028;-17
2022/11/08 07:15:12;;;;;;;27.50;19.13;;;6.60;79.20;;;;;;5076499;28;20025;-18
2022/11/08 07:17:38;;;;;;;28.95;18.33;;;6.70;79.30;;;;;;5076983;28;20036;-17
2022/11/08 07:20:05;;;;;;;21.05;14.55;;;6.70;79.40;;;;;;5075220;28;20378;-18
2022/11/08 07:22:31;;;;;;;27.33;16.92;;;6.70;79.50;;;;;;5075192;28;20060;-18
2022/11/08 07:24:56;;;;;;;21.30;13.65;;;6.80;79.40;;;;;;5076175;28;20060;-16
2022/11/08 07:27:22;;;;;;;25.75;15.70;;;6.90;79.40;;;;;;5076595;28;20035;-18
2022/11/08 07:29:48;;;;;;;27.23;16.02;;;7.00;79.20;;;;;;5076564;28;20422;-17
2022/11/08 07:32:14;;;;;;;23.15;14.45;;;7.20;79.00;;;;;;5076242;28;20032;-15
2022/11/08 07:34:40;;;;;;;24.08;16.38;;;7.20;78.80;;;;;;5075993;28;20048;-14
2022/11/08 07:37:06;;;;;;;24.55;16.73;;;7.30;78.80;;;;;;5075996;28;20033;-18
2022/11/08 07:39:32;;;;;;;23.92;15.02;;;7.30;78.70;;;;;;5076062;28;20090;-15
2022/11/08 07:41:57;;;;;;;23.90;16.23;;;7.40;78.40;;;;;;5076102;28;20111;-15
2022/11/08 07:44:23;;;;;;;28.05;16.48;;;7.50;78.40;;;;;;5076374;28;20073;-16
2022/11/08 07:46:49;;;;;;;23.05;14.88;;;7.60;78.20;;;;;;5076132;28;20519;-15
2022/11/08 07:49:15;;;;;;;29.67;16.73;;;7.60;79.50;;;;;;5075951;28;20568;-18
2022/11/08 07:51:40;;;;;;;25.75;15.60;;;7.80;79.10;;;;;;5076038;28;20035;-17
2022/11/08 07:54:06;;;;;;;26.58;16.98;;;7.80;79.40;;;;;;5076066;28;20396;-18
2022/11/08 07:56:32;;;;;;;28.25;16.70;;;7.90;79.40;;;;;;5075774;28;20017;-15
2022/11/08 07:58:58;;;;;;;30.23;18.20;;;8.00;79.70;;;;;;5075473;28;20108;-15
2022/11/08 08:01:24;;;;;;;30.10;17.45;;;8.10;79.90;;;;;;5075696;28;20021;-14
2022/11/08 08:03:50;;;;;;;24.83;16.60;;;8.30;81.40;;;;;;5076046;28;20021;-12
2022/11/08 08:06:15;;;;;;;24.92;15.65;;;8.40;81.30;;;;;;5075635;28;20029;-13
2022/11/08 08:08:41;;;;;;;22.48;14.43;;;8.50;81.20;;;;;;5075420;28;20032;-15
2022/11/08 08:11:08;;;;;;;22.92;15.25;;;8.60;80.40;;;;;;5075977;28;20028;-13
2022/11/08 08:13:34;;;;;;;27.35;16.98;;;8.80;80.00;;;;;;5075792;28;20107;-14
2022/11/08 08:16:01;;;;;;;23.63;14.77;;;8.90;80.50;;;;;;5075393;28;20136;-16
2022/11/08 08:18:28;;;;;;;28.08;16.35;;;9.00;81.00;;;;;;5075563;28;20036;-16
2022/11/08 08:20:54;;;;;;;30.65;17.75;;;9.20;81.20;;;;;;5074412;28;20021;-15
2022/11/08 08:23:20;;;;;;;25.80;16.55;;;9.30;80.90;;;;;;5075401;28;20484;-15
2022/11/08 08:25:46;;;;;;;24.52;15.30;;;9.50;81.00;;;;;;5075491;28;20033;-15
2022/11/08 08:28:12;;;;;;;27.83;15.60;;;9.60;80.70;;;;;;5075415;28;20020;-15
2022/11/08 08:30:39;;;;;;;22.48;14.27;;;9.80;80.60;;;;;;5075355;28;20085;-15
2022/11/08 08:33:12;;;;;;;21.38;13.25;;;10.00;79.30;;;;;;5074910;28;20049;-16
2022/11/08 08:35:39;;;;;;;19.58;13.10;;;10.30;79.30;;;;;;5075427;28;20029;-18
2022/11/08 08:38:05;;;;;;;18.27;11.77;;;10.60;77.60;;;;;;5074913;28;20036;-16
2022/11/08 08:40:32;;;;;;;16.73;9.80;;;10.80;75.40;;;;;;5074945;28;20025;-16
2022/11/08 08:42:59;;;;;;;17.30;11.05;;;11.10;74.70;;;;;;5074758;28;20484;-17
2022/11/08 08:45:27;;;;;;;19.33;11.05;;;11.40;73.60;;;;;;5074912;28;20054;-17
2022/11/08 08:47:54;;;;;;;18.98;10.80;;;11.60;73.40;;;;;;5074851;28;20085;-16
2022/11/08 08:50:21;;;;;;;17.13;10.68;;;11.90;72.00;;;;;;5074787;28;20039;-15
2022/11/08 08:52:47;;;;;;;16.50;10.60;;;12.20;72.20;;;;;;5074621;28;20435;-14
2022/11/08 08:55:13;;;;;;;17.77;9.75;;;12.50;72.60;;;;;;5074926;28;20029;-16
2022/11/08 08:57:45;;;;;;;18.50;9.90;;;12.70;70.70;;;;;;5074672;28;20020;-17
2022/11/08 09:00:12;;;;;;;15.95;9.55;;;13.00;70.90;;;;;;5074669;28;20020;-15
2022/11/08 09:02:38;;;;;;;16.52;9.85;;;13.30;70.60;;;;;;5074679;28;20028;-17
2022/11/08 09:05:05;;;;;;;16.02;9.27;;;13.60;67.60;;;;;;5074339;28;20024;-17
2022/11/08 09:07:31;;;;;;;13.80;8.05;;;13.90;64.80;;;;;;5074254;28;20028;-18
2022/11/08 09:09:56;;;;;;;14.73;8.52;;;14.10;66.10;;;;;;5074360;28;20033;-15
2022/11/08 09:12:23;;;;;;;13.98;8.25;;;14.50;65.20;;;;;;5074605;28;20031;-17
2022/11/08 09:14:48;;;;;;;16.48;9.13;;;14.80;64.00;;;;;;5074332;28;20028;-17
2022/11/08 09:17:14;;;;;;;13.88;8.30;;;15.10;62.40;;;;;;5074040;28;20439;-17
2022/11/08 09:19:40;;;;;;;12.02;7.72;;;15.30;64.10;;;;;;5074532;28;20024;-15
2022/11/08 09:22:06;;;;;;;12.82;8.57;;;15.40;65.30;;;;;;5074344;28;20040;-17
2022/11/08 09:24:33;;;;;;;12.88;7.25;;;15.60;64.80;;;;;;5074442;28;20472;-16
2022/11/08 09:27:02;;;;;;;12.52;8.10;;;15.80;63.90;;;;;;5073907;28;20488;-16
2022/11/08 09:29:32;;;;;;;11.48;7.72;;;16.00;60.50;;;;;;5074374;28;20044;-17
2022/11/08 09:32:01;;;;;;;12.27;7.97;;;16.20;60.40;;;;;;5073775;28;20081;-15
2022/11/08 09:34:27;;;;;;;11.43;7.22;;;16.40;60.60;;;;;;5073707;28;20119;-15
2022/11/08 09:36:54;;;;;;;12.23;7.10;;;16.60;61.70;;;;;;5073551;28;20017;-15
2022/11/08 09:39:19;;;;;;;10.57;6.93;;;16.80;60.20;;;;;;5074102;28;20130;-16
2022/11/08 09:42:04;;;;;;;10.73;6.50;;;17.00;59.10;;;;;;5073759;28;20467;-17
2022/11/08 09:45:10;;;;;;;11.57;7.78;;;17.10;58.50;;;;;;5073769;28;20457;-17
2022/11/08 09:47:42;;;;;;;10.90;6.22;;;17.10;58.80;;;;;;5072113;28;20090;-15
2022/11/08 09:50:17;;;;;;;9.82;6.35;;;17.00;59.90;;;;;;5073955;28;20131;-14
2022/11/08 09:52:56;;;;;;;10.60;5.80;;;17.00;60.70;;;;;;5073752;28;20036;-16
2022/11/08 09:56:26;;;;;;;10.82;6.25;;;17.10;60.30;;;;;;5073783;28;20032;-15
2022/11/08 09:59:03;;;;;;;9.88;6.50;;;17.40;58.70;;;;;;5031386;28;20433;-17
2022/11/08 10:01:34;;;;;;;9.88;6.32;;;17.50;57.70;;;;;;5051450;28;20546;-16
2022/11/08 10:04:14;;;;;;;10.60;6.78;;;17.70;57.30;;;;;;5034764;28;20033;-15
2022/11/08 10:06:52;;;;;;;11.55;7.72;;;17.90;56.90;;;;;;5051606;28;20021;-15
2022/11/08 10:09:32;;;;;;;9.82;6.47;;;18.00;56.30;;;;;;5051369;28;20060;-16
2022/11/08 10:12:13;;;;;;;8.95;6.10;;;18.00;56.20;;;;;;5051450;28;20037;-17
2022/11/08 10:15:16;;;;;;;8.48;5.35;;;18.10;56.00;;;;;;5051094;28;20090;-16
2022/11/08 10:18:12;;;;;;;9.18;6.03;;;18.20;56.50;;;;;;5051589;28;20033;-16
2022/11/08 10:21:23;;;;;;;8.52;5.32;;;18.30;56.20;;;;;;5051050;28;20465;-16
2022/11/08 10:24:17;;;;;;;10.32;7.28;;;18.40;56.20;;;;;;5011572;28;20029;-17
2022/11/08 10:26:46;;;;;;;10.75;6.97;;;18.30;54.30;;;;;;5011447;28;20022;-15
2022/11/08 10:29:34;;;;;;;11.80;7.53;;;18.30;54.90;;;;;;5011858;28;20042;-16
2022/11/08 10:32:11;;;;;;;9.20;5.78;;;18.20;52.30;;;;;;5011396;28;20026;-16
2022/11/08 10:35:13;;;;;;;7.70;5.57;;;17.90;54.70;;;;;;5015775;28;20505;-16
2022/11/08 10:37:42;;;;;;;9.98;5.50;;;17.70;56.20;;;;;;4991479;28;20030;-16
2022/11/08 10:40:36;;;;;;;10.57;7.35;;;17.70;56.90;;;;;;4992234;28;20057;-16
2022/11/08 10:43:10;;;;;;;11.18;7.68;;;17.90;55.50;;;;;;4993706;28;20409;-16
2022/11/08 10:45:36;;;;;;;8.52;5.65;;;18.10;55.90;;;;;;4998996;28;20045;-15
2022/11/08 10:48:04;;;;;;;11.70;6.45;;;18.30;55.70;;;;;;4998091;28;20034;-15
2022/11/08 10:50:43;;;;;;;8.93;5.82;;;18.60;54.80;;;;;;4997960;28;20033;-15
2022/11/08 10:53:25;;;;;;;11.23;7.53;;;19.00;53.80;;;;;;4997784;28;20034;-15
2022/11/08 10:56:01;;;;;;;8.35;5.72;;;19.40;51.70;;;;;;5017580;28;20103;-15
2022/11/08 10:58:42;;;;;;;10.85;6.15;;;19.60;52.10;;;;;;5017671;28;20113;-17
2022/11/08 11:01:21;;;;;;;11.13;6.78;;;19.70;51.30;;;;;;5017889;28;20120;-16
2022/11/08 11:03:49;;;;;;;9.43;6.20;;;19.80;50.70;;;;;;5017702;28;20080;-16
2022/11/08 11:06:29;;;;;;;9.82;7.22;;;19.80;50.70;;;;;;5018231;28;20069;-16
2022/11/08 11:09:05;;;;;;;9.18;6.13;;;20.00;49.00;;;;;;5018042;28;20556;-14
2022/11/08 11:11:31;;;;;;;9.48;6.15;;;20.30;48.40;;;;;;5018037;28;20112;-16
2022/11/08 11:14:15;;;;;;;8.25;5.63;;;20.80;47.70;;;;;;5035833;28;20116;-16
2022/11/08 11:16:57;;;;;;;10.73;7.07;;;21.40;47.10;;;;;;5079733;28;20046;-15
2022/11/08 11:19:25;;;;;;;7.88;5.38;;;21.90;46.20;;;;;;5079418;28;20020;-15
2022/11/08 11:22:08;;;;;;;8.73;5.63;;;22.40;45.90;;;;;;5079361;28;20021;-14
2022/11/08 11:24:35;;;;;;;11.20;6.80;;;22.60;45.10;;;;;;5079864;28;20036;-15
2022/11/08 11:27:07;;;;;;;10.60;6.97;;;22.90;44.80;;;;;;5079070;28;20025;-14
2022/11/08 11:29:35;;;;;;;8.88;6.55;;;22.90;44.10;;;;;;5079558;28;20388;-16
2022/11/08 11:32:31;;;;;;;7.40;5.07;;;22.80;44.50;;;;;;5079547;28;20032;-15
2022/11/08 11:35:00;;;;;;;9.70;6.35;;;22.90;44.50;;;;;;5078979;28;20035;-15
2022/11/08 11:37:41;;;;;;;7.82;4.97;;;23.20;44.50;;;;;;5079086;28;20036;-16
2022/11/08 11:40:31;;;;;;;8.02;5.18;;;23.40;42.30;;;;;;5079313;28;20024;-14
2022/11/08 11:43:35;;;;;;;7.93;4.80;;;23.50;43.30;;;;;;5077669;28;20039;-17
2022/11/08 11:46:08;;;;;;;10.13;5.90;;;24.00;42.40;;;;;;5078955;28;20058;-16
2022/11/08 11:48:57;;;;;;;10.25;6.30;;;24.40;41.40;;;;;;5079169;28;20484;-15
2022/11/08 11:51:27;;;;;;;7.07;5.05;;;24.50;35.70;;;;;;5079627;28;20062;-15
2022/11/08 11:53:54;;;;;;;8.25;5.55;;;24.40;40.40;;;;;;5078606;28;20025;-14
2022/11/08 11:57:14;;;;;;;6.78;5.10;;;24.20;40.50;;;;;;5076066;28;20033;-15
2022/11/08 11:59:51;;;;;;;9.18;5.50;;;24.20;40.60;;;;;;5053516;28;20025;-15
2022/11/08 12:02:53;;;;;;;8.82;5.55;;;24.30;39.30;;;;;;5053670;28;20457;-15
2022/11/08 12:05:39;;;;;;;5.97;4.60;;;24.60;37.50;;;;;;5036904;28;20024;-15
2022/11/08 12:08:45;;;;;;;9.23;5.97;;;24.90;39.10;;;;;;5013999;28;20037;-15
2022/11/08 12:11:32;;;;;;;7.88;5.68;;;25.30;36.60;;;;;;5053570;28;20174;-15
2022/11/08 12:14:27;;;;;;;8.55;5.50;;;25.60;37.50;;;;;;5053233;28;20116;-15
2022/11/08 12:17:06;;;;;;;8.93;4.97;;;25.80;36.70;;;;;;5053258;28;20128;-15
2022/11/08 12:19:45;;;;;;;8.93;5.22;;;25.90;36.40;;;;;;5053996;28;20463;-14
2022/11/08 12:22:40;;;;;;;9.20;5.78;;;25.80;36.00;;;;;;5053734;28;20509;-14
2022/11/08 12:25:31;;;;;;;7.43;5.18;;;25.60;37.20;;;;;;5053897;28;20085;-14
2022/11/08 12:28:33;;;;;;;9.65;5.18;;;25.50;36.30;;;;;;5053140;28;20037;-16
2022/11/08 12:31:16;;;;;;;6.70;4.57;;;25.30;36.80;;;;;;5052956;28;20107;-16
2022/11/08 12:33:51;;;;;;;8.80;4.60;;;25.00;37.80;;;;;;5052895;28;20611;-15
2022/11/08 12:36:30;;;;;;;8.60;4.70;;;24.50;38.10;;;;;;5073640;28;20056;-14
2022/11/08 12:39:11;;;;;;;6.68;4.38;;;24.20;37.80;;;;;;5074876;28;20064;-16
2022/11/08 12:41:55;;;;;;;7.78;4.75;;;23.90;39.00;;;;;;5075387;28;20040;-15
2022/11/08 12:44:30;;;;;;;7.07;4.75;;;23.60;39.90;;;;;;5075033;28;20035;-15
2022/11/08 12:47:25;;;;;;;8.05;4.40;;;23.40;40.00;;;;;;5074699;28;20507;-14
2022/11/08 12:50:15;;;;;;;7.50;4.90;;;23.20;40.10;;;;;;5075225;28;20021;-15
2022/11/08 12:52:59;;;;;;;7.78;4.55;;;22.90;40.60;;;;;;5074660;28;20040;-13
2022/11/08 12:55:33;;;;;;;7.22;4.93;;;22.90;40.80;;;;;;5075135;28;20028;-14
2022/11/08 12:58:20;;;;;;;7.68;4.60;;;23.00;40.50;;;;;;5075058;28;20032;-15
2022/11/08 13:00:51;;;;;;;7.70;4.97;;;23.40;39.90;;;;;;5074537;28;20033;-18
2022/11/08 13:03:46;;;;;;;8.77;4.68;;;23.80;39.40;;;;;;5074625;28;20106;-15
2022/11/08 13:06:17;;;;;;;9.63;5.32;;;24.30;38.00;;;;;;5072858;28;20025;-14
2022/11/08 13:09:11;;;;;;;8.77;4.95;;;24.70;37.70;;;;;;5074716;28;20394;-15
2022/11/08 13:11:51;;;;;;;7.93;4.90;;;24.90;36.30;;;;;;5073810;28;20027;-15
2022/11/08 13:14:19;;;;;;;8.43;4.78;;;24.90;36.00;;;;;;5074338;28;20063;-15
2022/11/08 13:17:08;;;;;;;8.02;4.78;;;24.90;36.00;;;;;;5074611;28;20060;-15
2022/11/08 13:19:46;;;;;;;7.40;5.07;;;24.70;35.60;;;;;;5074290;28;20055;-17
2022/11/08 13:22:30;;;;;;;7.45;4.95;;;24.40;36.20;;;;;;5074074;28;20369;-15
2022/11/08 13:25:17;;;;;;;8.93;5.25;;;24.20;37.10;;;;;;5073899;28;20028;-15